createdAt,value
2022-12-23T00:01:53.602Z,27.60
2022-12-23T00:06:56.852Z,20.20
2022-12-23T00:12:18.502Z,19.50
2022-12-23T00:17:22.947Z,26.50
2022-12-23T00:22:46.817Z,9.80
2022-12-23T00:28:01.698Z,18.80
2022-12-23T00:33:05.732Z,16.80
2022-12-23T00:38:09.033Z,22.20
2022-12-23T00:43:12.156Z,24.80
2022-12-23T00:48:34.218Z,24.90
2022-12-23T00:53:37.502Z,17.90
2022-12-23T00:58:40.631Z,14.80
2022-12-23T01:04:02.361Z,20.00
2022-12-23T01:09:05.664Z,20.70
2022-12-23T01:14:09.561Z,14.90
2022-12-23T01:19:13.104Z,11.60
2022-12-23T01:24:16.231Z,18.70
2022-12-23T01:29:19.418Z,15.30
2022-12-23T01:34:22.436Z,19.40
2022-12-23T01:39:25.529Z,10.30
2022-12-23T01:44:56.521Z,14.20
2022-12-23T01:50:31.384Z,14.80
2022-12-23T01:56:00.665Z,12.00
2022-12-23T02:01:24.558Z,9.20
2022-12-23T02:07:01.567Z,11.00
2022-12-23T02:12:30.784Z,18.60
2022-12-23T02:18:04.626Z,17.00
2022-12-23T02:24:02.300Z,15.40
2022-12-23T02:29:52.606Z,12.00
2022-12-23T02:35:34.304Z,15.30
2022-12-23T02:40:49.298Z,19.30
2022-12-23T02:46:00.552Z,16.70
2022-12-23T02:51:07.077Z,13.20
2022-12-23T02:56:14.225Z,12.00
2022-12-23T03:01:19.838Z,15.80
2022-12-23T03:06:40.783Z,15.00
2022-12-23T03:12:09.020Z,21.30
2022-12-23T03:17:31.322Z,20.70
2022-12-23T03:23:03.926Z,20.90
2022-12-23T03:28:18.898Z,18.50
2022-12-23T03:33:39.925Z,17.80
2022-12-23T03:38:46.071Z,19.20
2022-12-23T03:44:02.436Z,9.30
2022-12-23T03:49:17.338Z,27.20
2022-12-23T03:54:31.637Z,24.20
2022-12-23T03:59:42.765Z,21.40
2022-12-23T04:05:00.937Z,22.30
2022-12-23T04:10:07.893Z,21.80
2022-12-23T04:15:13.411Z,30.00
2022-12-23T04:20:17.421Z,26.10
2022-12-23T04:25:21.027Z,24.10
2022-12-23T04:30:28.068Z,14.60
2022-12-23T04:35:36.689Z,26.60
2022-12-23T04:40:39.772Z,24.70
2022-12-23T04:45:42.977Z,24.30
2022-12-23T04:50:46.106Z,26.20
2022-12-23T04:55:52.478Z,24.80
2022-12-23T05:01:22.094Z,31.10
2022-12-23T05:06:25.310Z,17.10
2022-12-23T05:11:28.408Z,26.40
2022-12-23T05:16:31.896Z,24.50
2022-12-23T05:21:35.134Z,26.00
2022-12-23T05:26:38.245Z,28.20
2022-12-23T05:31:41.472Z,21.90
2022-12-23T05:36:44.487Z,32.20
2022-12-23T05:41:47.663Z,30.60
2022-12-23T05:46:50.905Z,25.70
2022-12-23T05:51:53.973Z,28.60
2022-12-23T05:56:57.081Z,33.50
2022-12-23T06:02:00.255Z,26.50
2022-12-23T06:07:03.814Z,29.20
2022-12-23T06:12:07.795Z,18.80
2022-12-23T06:17:10.847Z,20.80
2022-12-23T06:22:14.931Z,26.40
2022-12-23T06:27:19.098Z,18.20
2022-12-23T06:32:22.208Z,21.70
2022-12-23T06:37:25.414Z,19.70
2022-12-23T06:42:28.591Z,23.70
2022-12-23T06:47:32.063Z,21.80
2022-12-23T06:52:35.349Z,25.30
2022-12-23T06:57:38.450Z,16.80
2022-12-23T07:02:41.776Z,15.60
2022-12-23T07:07:45.107Z,29.80
2022-12-23T07:12:50.850Z,25.70
2022-12-23T07:17:55.504Z,22.80
2022-12-23T07:22:59.103Z,23.80
2022-12-23T07:28:02.117Z,28.60
2022-12-23T07:33:05.207Z,24.60
2022-12-23T07:38:09.899Z,21.70
2022-12-23T07:43:13.064Z,21.00
2022-12-23T07:48:16.167Z,12.80
2022-12-23T07:53:19.279Z,25.50
2022-12-23T07:58:22.589Z,28.50
2022-12-23T08:03:25.894Z,14.40
2022-12-23T08:08:29.617Z,23.50
2022-12-23T08:13:36.065Z,31.00
2022-12-23T08:18:41.802Z,29.80
2022-12-23T08:23:47.513Z,25.10
2022-12-23T08:28:53.746Z,21.00
2022-12-23T08:34:00.188Z,24.40
2022-12-23T08:39:10.481Z,21.20
2022-12-23T08:44:15.217Z,27.30
2022-12-23T08:49:18.394Z,28.50
2022-12-23T08:54:22.489Z,25.00
2022-12-23T08:59:25.894Z,22.50
2022-12-23T09:04:28.976Z,20.30
2022-12-23T09:09:32.114Z,20.00
2022-12-23T09:14:35.399Z,24.20
2022-12-23T09:19:38.432Z,28.10
2022-12-23T09:24:41.606Z,24.10
2022-12-23T09:29:44.738Z,24.30
2022-12-23T09:34:47.930Z,23.80
2022-12-23T09:39:51.127Z,24.20
2022-12-23T09:45:40.732Z,25.30
2022-12-23T09:50:45.730Z,32.30
2022-12-23T09:56:02.660Z,22.90
2022-12-23T10:01:45.316Z,21.70
2022-12-23T10:07:03.248Z,23.60
2022-12-23T10:12:27.209Z,24.20
2022-12-23T10:17:41.984Z,34.30
2022-12-23T10:22:47.417Z,34.50
2022-12-23T10:27:50.639Z,29.30
2022-12-23T10:33:23.374Z,27.60
2022-12-23T10:38:53.276Z,29.80
2022-12-23T10:44:23.105Z,30.60
2022-12-23T10:49:45.584Z,36.30
2022-12-23T10:54:49.525Z,35.00
2022-12-23T10:59:52.703Z,39.30
2022-12-23T11:04:55.915Z,29.50
2022-12-23T11:10:13.492Z,29.20
2022-12-23T11:15:39.567Z,21.20
2022-12-23T11:20:46.635Z,39.90
2022-12-23T11:25:59.744Z,34.10
2022-12-23T11:31:12.138Z,38.20
2022-12-23T11:36:24.963Z,34.70
2022-12-23T11:41:35.379Z,23.80
2022-12-23T11:46:38.716Z,34.60
2022-12-23T11:51:44.643Z,41.00
2022-12-23T11:56:53.853Z,37.60
2022-12-23T12:02:02.600Z,30.50
2022-12-23T12:07:12.312Z,35.60
2022-12-23T12:12:21.890Z,26.20
2022-12-23T12:17:38.384Z,28.80
2022-12-23T12:22:59.409Z,34.70
2022-12-23T12:28:13.882Z,35.10
2022-12-23T12:33:28.260Z,36.90
2022-12-23T12:38:33.737Z,32.30
2022-12-23T12:43:48.947Z,40.50
2022-12-23T12:48:57.932Z,22.70
2022-12-23T12:54:45.863Z,36.40
2022-12-23T13:00:05.222Z,43.80
2022-12-23T13:05:53.579Z,34.00
2022-12-23T13:11:09.771Z,24.90
2022-12-23T13:17:11.537Z,33.30
2022-12-23T13:22:33.586Z,31.60
2022-12-23T13:28:08.195Z,24.90
2022-12-23T13:33:28.559Z,32.60
2022-12-23T13:38:56.457Z,38.50
2022-12-23T13:44:06.721Z,33.30
2022-12-23T13:49:57.068Z,34.40
2022-12-23T13:55:38.975Z,36.60
2022-12-23T14:00:43.275Z,37.20
2022-12-23T14:05:51.047Z,42.80
2022-12-23T14:11:12.642Z,43.80
2022-12-23T14:16:47.388Z,39.90
2022-12-23T14:22:13.142Z,36.10
2022-12-23T14:27:40.631Z,34.40
2022-12-23T14:32:54.365Z,36.30
2022-12-23T14:38:16.026Z,39.30
2022-12-23T14:43:22.336Z,37.60
2022-12-23T14:48:34.907Z,51.40
2022-12-23T14:53:57.951Z,44.70
2022-12-23T14:59:04.057Z,42.50
2022-12-23T15:04:17.100Z,45.60
2022-12-23T15:09:26.813Z,37.40
2022-12-23T15:14:47.173Z,40.90
2022-12-23T15:19:51.726Z,31.00
2022-12-23T15:24:55.940Z,45.00
2022-12-23T15:30:00.197Z,45.60
2022-12-23T15:35:06.971Z,25.70
2022-12-23T15:40:42.030Z,29.00
2022-12-23T15:45:45.444Z,21.90
2022-12-23T15:50:51.507Z,48.10
2022-12-23T15:55:55.438Z,42.20
2022-12-23T16:01:01.040Z,51.60
2022-12-23T16:06:26.029Z,51.10
2022-12-23T16:11:38.579Z,48.10
2022-12-23T16:16:43.687Z,48.20
2022-12-23T16:21:46.910Z,54.80
2022-12-23T16:26:50.119Z,45.20
2022-12-23T16:32:01.448Z,41.40
2022-12-23T16:37:05.354Z,44.60
2022-12-23T16:42:08.654Z,39.50
2022-12-23T16:47:17.577Z,30.50
2022-12-23T16:52:24.474Z,36.50
2022-12-23T16:57:27.603Z,49.90
2022-12-23T17:02:34.633Z,64.80
2022-12-23T17:07:43.219Z,57.20
2022-12-23T17:12:50.761Z,46.10
2022-12-23T17:17:54.772Z,31.80
2022-12-23T17:23:00.338Z,47.00
2022-12-23T17:28:10.112Z,44.20
2022-12-23T17:33:19.467Z,41.50
2022-12-23T17:38:22.871Z,43.60
2022-12-23T17:43:26.995Z,55.00
2022-12-23T17:48:32.084Z,61.00
2022-12-23T17:53:35.511Z,47.70
2022-12-23T17:58:38.670Z,49.90
2022-12-23T18:03:41.802Z,46.20
2022-12-23T18:08:46.228Z,44.50
2022-12-23T18:13:52.859Z,40.40
2022-12-23T18:18:56.313Z,39.40
2022-12-23T18:24:00.444Z,61.60
2022-12-23T18:29:03.671Z,57.90
2022-12-23T18:34:06.863Z,56.90
2022-12-23T18:39:10.275Z,46.10
2022-12-23T18:44:21.261Z,38.00
2022-12-23T18:49:24.489Z,31.30
2022-12-23T18:54:28.316Z,41.10
2022-12-23T18:59:33.277Z,64.90
2022-12-23T19:04:36.359Z,53.00
2022-12-23T19:09:39.565Z,57.60
2022-12-23T19:14:42.770Z,31.60
2022-12-23T19:19:45.884Z,36.10
2022-12-23T19:25:04.510Z,34.60
2022-12-23T19:30:14.782Z,38.20
2022-12-23T19:35:18.072Z,41.40
2022-12-23T19:40:23.929Z,54.60
2022-12-23T19:45:27.322Z,54.10
2022-12-23T19:50:30.756Z,51.50
2022-12-23T19:55:34.147Z,31.40
2022-12-23T20:00:37.353Z,30.90
2022-12-23T20:05:40.873Z,35.50
2022-12-23T20:10:44.695Z,29.30
2022-12-23T20:15:47.893Z,36.30
2022-12-23T20:20:51.928Z,50.50
2022-12-23T20:25:55.842Z,48.70
2022-12-23T20:31:22.663Z,38.40
2022-12-23T20:36:31.278Z,45.30
2022-12-23T20:41:35.073Z,33.00
2022-12-23T20:46:38.317Z,37.30
2022-12-23T20:51:41.598Z,44.90
2022-12-23T20:56:44.695Z,65.10
2022-12-23T21:01:47.961Z,40.10
2022-12-23T21:06:51.320Z,30.70
2022-12-23T21:11:54.636Z,26.90
2022-12-23T21:16:57.763Z,16.30
2022-12-23T21:22:01.630Z,15.40
2022-12-23T21:27:04.768Z,10.90
2022-12-23T21:32:07.981Z,8.50
2022-12-23T21:37:11.087Z,7.30
2022-12-23T21:42:14.098Z,10.00
2022-12-23T21:47:17.518Z,6.00
2022-12-23T21:52:20.809Z,6.90
2022-12-23T21:57:24.221Z,10.20
2022-12-23T22:02:27.463Z,15.10
2022-12-23T22:07:30.673Z,6.20
2022-12-23T22:12:33.850Z,6.50
2022-12-23T22:17:37.083Z,7.70
2022-12-23T22:22:40.169Z,10.00
2022-12-23T22:27:45.332Z,18.00
2022-12-23T22:32:48.521Z,15.70
2022-12-23T22:37:51.649Z,14.70
2022-12-23T22:42:54.835Z,16.40
2022-12-23T22:47:57.946Z,13.90
2022-12-23T22:53:01.259Z,9.90
2022-12-23T22:58:04.365Z,15.40
2022-12-23T23:03:07.570Z,23.00
2022-12-23T23:08:12.622Z,25.60
2022-12-23T23:13:15.766Z,23.60
2022-12-23T23:18:19.258Z,28.20
2022-12-23T23:23:22.474Z,35.50
2022-12-23T23:28:25.666Z,30.20
2022-12-23T23:33:28.781Z,32.50
2022-12-23T23:38:31.978Z,28.50
2022-12-23T23:43:35.291Z,23.30
2022-12-23T23:48:39.624Z,24.00
2022-12-23T23:53:42.735Z,18.60
2022-12-23T23:58:45.947Z,26.80
